LOT263 EPWA-EDDP
Flight info
| Callsign | LOT263 |
|---|---|
| Flight time | 1h 4m |
| Altitude | 36000 |
| Route | LOLSI T174 KORUP/N0442F300 Z220 BEBKU/N0424F280 T950 LUXBO |
| Aircraft | B738/M-SDE2E3FGHIRWXY/LB1 |
Departure
| Time | 2026-05-07 06:10 |
|---|---|
| Airport | Warsaw Chopin Airport (EPWA) |
Arrival
| Time | 2026-05-07 07:14 |
|---|---|
| Airport | Leipzig/Halle Airport (EDDP) |
| Time | Latitude | Longitude | Altitude | Speed | Heading |
|---|---|---|---|---|---|
| 2026-05-07 05:40 | 52.16821 | 20.97321 | 359 ft | 0 kts | 66° |
| 2026-05-07 06:00 | 52.16818 | 20.97308 | 363 ft | 4 kts | 66° |
| 2026-05-07 06:01 | 52.16807 | 20.97267 | 365 ft | 4 kts | 68° |
| 2026-05-07 06:01 | 52.16798 | 20.97229 | 362 ft | 3 kts | 77° |
| 2026-05-07 06:01 | 52.16797 | 20.97208 | 362 ft | 2 kts | 104° |
| 2026-05-07 06:01 | 52.16802 | 20.97192 | 360 ft | 2 kts | 142° |
| 2026-05-07 06:02 | 52.16811 | 20.97182 | 362 ft | 2 kts | 151° |
| 2026-05-07 06:02 | 52.16813 | 20.97180 | 361 ft | 0 kts | 151° |
| 2026-05-07 06:04 | 52.16804 | 20.97188 | 360 ft | 3 kts | 152° |
| 2026-05-07 06:04 | 52.16770 | 20.97208 | 362 ft | 7 kts | 165° |
| 2026-05-07 06:05 | 52.16721 | 20.97224 | 360 ft | 8 kts | 172° |
| 2026-05-07 06:05 | 52.16662 | 20.97229 | 360 ft | 7 kts | 178° |
| 2026-05-07 06:05 | 52.16610 | 20.97254 | 358 ft | 8 kts | 135° |
| 2026-05-07 06:05 | 52.16583 | 20.97341 | 360 ft | 10 kts | 116° |
| 2026-05-07 06:06 | 52.16552 | 20.97451 | 361 ft | 12 kts | 115° |
| 2026-05-07 06:06 | 52.16515 | 20.97580 | 361 ft | 13 kts | 114° |
| 2026-05-07 06:06 | 52.16475 | 20.97728 | 356 ft | 14 kts | 114° |
| 2026-05-07 06:06 | 52.16432 | 20.97883 | 356 ft | 16 kts | 114° |
| 2026-05-07 06:07 | 52.16383 | 20.98052 | 361 ft | 18 kts | 115° |
| 2026-05-07 06:07 | 52.16334 | 20.98186 | 357 ft | 13 kts | 128° |
| 2026-05-07 06:07 | 52.16268 | 20.98268 | 358 ft | 7 kts | 159° |
| 2026-05-07 06:07 | 52.16238 | 20.98214 | 352 ft | 8 kts | 260° |
| 2026-05-07 06:08 | 52.16234 | 20.98125 | 356 ft | 8 kts | 268° |
| 2026-05-07 06:08 | 52.16236 | 20.98025 | 356 ft | 9 kts | 274° |
| 2026-05-07 06:08 | 52.16241 | 20.97923 | 370 ft | 6 kts | 275° |
| 2026-05-07 06:08 | 52.16252 | 20.97854 | 359 ft | 6 kts | 292° |
| 2026-05-07 06:09 | 52.16271 | 20.97792 | 360 ft | 6 kts | 295° |
| 2026-05-07 06:09 | 52.16326 | 20.97599 | 355 ft | 49 kts | 294° |
| 2026-05-07 06:09 | 52.16573 | 20.96721 | 361 ft | 119 kts | 295° |
| 2026-05-07 06:09 | 52.16840 | 20.95782 | 367 ft | 156 kts | 296° |
| 2026-05-07 06:10 | 52.17344 | 20.94050 | 832 ft | 169 kts | 295° |
| 2026-05-07 06:10 | 52.17820 | 20.92370 | 1795 ft | 162 kts | 291° |
| 2026-05-07 06:10 | 52.18202 | 20.90597 | 2407 ft | 174 kts | 270° |
| 2026-05-07 06:10 | 52.18116 | 20.88478 | 2723 ft | 201 kts | 263° |
| 2026-05-07 06:11 | 52.18018 | 20.86061 | 2996 ft | 222 kts | 264° |
| 2026-05-07 06:11 | 52.17946 | 20.83474 | 3394 ft | 239 kts | 269° |
| 2026-05-07 06:11 | 52.18269 | 20.80691 | 3836 ft | 258 kts | 281° |
| 2026-05-07 06:11 | 52.18705 | 20.77835 | 4689 ft | 259 kts | 281° |
| 2026-05-07 06:12 | 52.19118 | 20.75002 | 5593 ft | 261 kts | 280° |
| 2026-05-07 06:12 | 52.19527 | 20.72102 | 6486 ft | 264 kts | 278° |
| 2026-05-07 06:12 | 52.19500 | 20.69138 | 7338 ft | 263 kts | 255° |
| 2026-05-07 06:12 | 52.18930 | 20.66319 | 8213 ft | 263 kts | 248° |
| 2026-05-07 06:13 | 52.18286 | 20.63506 | 9033 ft | 266 kts | 248° |
| 2026-05-07 06:13 | 52.17640 | 20.60665 | 9859 ft | 269 kts | 248° |
| 2026-05-07 06:13 | 52.16984 | 20.57751 | 10340 ft | 285 kts | 249° |
| 2026-05-07 06:13 | 52.16275 | 20.54583 | 10516 ft | 309 kts | 249° |
| 2026-05-07 06:14 | 52.15540 | 20.51157 | 10727 ft | 331 kts | 253° |
| 2026-05-07 06:14 | 52.15304 | 20.47364 | 11253 ft | 343 kts | 270° |
| 2026-05-07 06:14 | 52.15446 | 20.43472 | 12005 ft | 346 kts | 271° |
| 2026-05-07 06:14 | 52.15629 | 20.39540 | 12783 ft | 349 kts | 272° |
| 2026-05-07 06:15 | 52.15816 | 20.35582 | 13574 ft | 353 kts | 271° |
| 2026-05-07 06:15 | 52.15996 | 20.31572 | 14287 ft | 356 kts | 271° |
| 2026-05-07 06:15 | 52.16169 | 20.27530 | 15009 ft | 360 kts | 271° |
| 2026-05-07 06:15 | 52.16335 | 20.23452 | 15768 ft | 363 kts | 271° |
| 2026-05-07 06:16 | 52.16498 | 20.19329 | 16550 ft | 367 kts | 271° |
| 2026-05-07 06:16 | 52.16659 | 20.15159 | 17314 ft | 371 kts | 271° |
| 2026-05-07 06:16 | 52.16820 | 20.10944 | 18008 ft | 375 kts | 270° |
| 2026-05-07 06:16 | 52.16981 | 20.06678 | 18637 ft | 379 kts | 270° |
| 2026-05-07 06:17 | 52.17141 | 20.02376 | 19252 ft | 382 kts | 270° |
| 2026-05-07 06:17 | 52.17302 | 19.98042 | 19855 ft | 385 kts | 270° |
| 2026-05-07 06:17 | 52.17463 | 19.93668 | 20453 ft | 388 kts | 270° |
| 2026-05-07 06:17 | 52.17622 | 19.89263 | 21038 ft | 391 kts | 270° |
| 2026-05-07 06:18 | 52.17629 | 19.84829 | 21597 ft | 392 kts | 262° |
| 2026-05-07 06:18 | 52.17275 | 19.80420 | 22188 ft | 393 kts | 258° |
| 2026-05-07 06:18 | 52.16843 | 19.76007 | 22745 ft | 396 kts | 258° |
| 2026-05-07 06:18 | 52.16399 | 19.71561 | 23297 ft | 399 kts | 258° |
| 2026-05-07 06:19 | 52.15965 | 19.67081 | 23775 ft | 402 kts | 258° |
| 2026-05-07 06:19 | 52.15544 | 19.62562 | 24244 ft | 404 kts | 258° |
| 2026-05-07 06:19 | 52.15137 | 19.58087 | 24721 ft | 406 kts | 258° |
| 2026-05-07 06:19 | 52.14728 | 19.53530 | 25179 ft | 408 kts | 258° |
| 2026-05-07 06:20 | 52.14317 | 19.48951 | 25620 ft | 410 kts | 258° |
| 2026-05-07 06:20 | 52.13904 | 19.44349 | 26064 ft | 412 kts | 258° |
| 2026-05-07 06:20 | 52.13486 | 19.39729 | 26486 ft | 414 kts | 258° |
| 2026-05-07 06:20 | 52.13062 | 19.35085 | 26899 ft | 415 kts | 258° |
| 2026-05-07 06:21 | 52.12632 | 19.30429 | 27294 ft | 418 kts | 258° |
| 2026-05-07 06:21 | 52.12193 | 19.25746 | 27693 ft | 419 kts | 257° |
| 2026-05-07 06:21 | 52.11749 | 19.21049 | 28090 ft | 422 kts | 257° |
| 2026-05-07 06:21 | 52.11300 | 19.16312 | 28463 ft | 424 kts | 257° |
| 2026-05-07 06:22 | 52.10849 | 19.11568 | 28828 ft | 426 kts | 257° |
| 2026-05-07 06:22 | 52.09937 | 19.02022 | 29656 ft | 427 kts | 257° |
| 2026-05-07 06:22 | 52.09481 | 18.97265 | 30170 ft | 424 kts | 257° |
| 2026-05-07 06:23 | 52.09028 | 18.92554 | 30656 ft | 421 kts | 256° |
| 2026-05-07 06:23 | 52.08574 | 18.87860 | 31109 ft | 419 kts | 256° |
| 2026-05-07 06:23 | 52.08120 | 18.83192 | 31542 ft | 417 kts | 256° |
| 2026-05-07 06:23 | 52.07672 | 18.78602 | 31967 ft | 415 kts | 256° |
| 2026-05-07 06:24 | 52.07218 | 18.73978 | 32427 ft | 413 kts | 256° |
| 2026-05-07 06:24 | 52.06786 | 18.69588 | 32840 ft | 411 kts | 256° |
| 2026-05-07 06:24 | 52.06332 | 18.65010 | 33261 ft | 409 kts | 256° |
| 2026-05-07 06:24 | 52.05879 | 18.60451 | 33660 ft | 408 kts | 256° |
| 2026-05-07 06:25 | 52.05427 | 18.55913 | 34024 ft | 407 kts | 256° |
| 2026-05-07 06:25 | 52.04972 | 18.51378 | 34309 ft | 407 kts | 256° |
| 2026-05-07 06:25 | 52.04514 | 18.46834 | 34525 ft | 408 kts | 256° |
| 2026-05-07 06:25 | 52.04053 | 18.42275 | 34773 ft | 409 kts | 256° |
| 2026-05-07 06:26 | 52.03591 | 18.37714 | 35057 ft | 409 kts | 256° |
| 2026-05-07 06:26 | 52.03127 | 18.33152 | 35280 ft | 410 kts | 256° |
| 2026-05-07 06:26 | 52.02659 | 18.28572 | 35508 ft | 411 kts | 256° |
| 2026-05-07 06:26 | 52.02189 | 18.23992 | 35771 ft | 412 kts | 256° |
| 2026-05-07 06:27 | 52.01716 | 18.19398 | 35884 ft | 415 kts | 256° |
| 2026-05-07 06:27 | 52.01236 | 18.14760 | 35891 ft | 417 kts | 256° |
| 2026-05-07 06:27 | 52.00273 | 18.05473 | 35893 ft | 416 kts | 256° |
| 2026-05-07 06:28 | 51.99303 | 17.96311 | 35881 ft | 410 kts | 256° |
| 2026-05-07 06:28 | 51.98277 | 17.87214 | 35893 ft | 409 kts | 256° |
| 2026-05-07 06:29 | 51.97235 | 17.78123 | 35904 ft | 410 kts | 255° |
| 2026-05-07 06:29 | 51.96199 | 17.69099 | 35898 ft | 410 kts | 255° |
| 2026-05-07 06:30 | 51.95149 | 17.59983 | 35898 ft | 413 kts | 255° |
| 2026-05-07 06:30 | 51.94088 | 17.50827 | 35896 ft | 413 kts | 255° |
| 2026-05-07 06:31 | 51.93020 | 17.41670 | 35893 ft | 414 kts | 255° |
| 2026-05-07 06:31 | 51.91944 | 17.32513 | 35902 ft | 414 kts | 255° |
| 2026-05-07 06:32 | 51.90861 | 17.23353 | 35900 ft | 414 kts | 255° |
| 2026-05-07 06:32 | 51.89769 | 17.14192 | 35900 ft | 414 kts | 255° |
| 2026-05-07 06:33 | 51.88670 | 17.05032 | 35900 ft | 414 kts | 255° |
| 2026-05-07 06:33 | 51.87563 | 16.95877 | 35904 ft | 415 kts | 255° |
| 2026-05-07 06:34 | 51.86448 | 16.86714 | 35904 ft | 416 kts | 255° |
| 2026-05-07 06:34 | 51.85321 | 16.77521 | 35899 ft | 416 kts | 255° |
| 2026-05-07 06:35 | 51.84190 | 16.68345 | 35906 ft | 416 kts | 255° |
| 2026-05-07 06:35 | 51.83057 | 16.59227 | 35905 ft | 416 kts | 255° |
| 2026-05-07 06:36 | 51.81904 | 16.49999 | 35902 ft | 417 kts | 255° |
| 2026-05-07 06:36 | 51.80748 | 16.40820 | 35917 ft | 417 kts | 254° |
| 2026-05-07 06:37 | 51.79593 | 16.31702 | 35906 ft | 417 kts | 254° |
| 2026-05-07 06:37 | 51.78423 | 16.22530 | 35902 ft | 417 kts | 254° |
| 2026-05-07 06:38 | 51.77246 | 16.13359 | 35908 ft | 417 kts | 254° |
| 2026-05-07 06:38 | 51.76059 | 16.04175 | 35907 ft | 418 kts | 254° |
| 2026-05-07 06:39 | 51.74864 | 15.94988 | 35907 ft | 419 kts | 254° |
| 2026-05-07 06:39 | 51.73661 | 15.85787 | 35910 ft | 420 kts | 254° |
| 2026-05-07 06:40 | 51.72448 | 15.76573 | 35911 ft | 420 kts | 254° |
| 2026-05-07 06:40 | 51.71217 | 15.67334 | 35912 ft | 422 kts | 254° |
| 2026-05-07 06:41 | 51.69971 | 15.58070 | 35911 ft | 423 kts | 254° |
| 2026-05-07 06:41 | 51.68720 | 15.48812 | 35904 ft | 422 kts | 254° |
| 2026-05-07 06:42 | 51.68103 | 15.44249 | 35890 ft | 411 kts | 254° |
| 2026-05-07 06:42 | 51.67496 | 15.39775 | 35626 ft | 407 kts | 253° |
| 2026-05-07 06:42 | 51.66894 | 15.35359 | 35398 ft | 401 kts | 253° |
| 2026-05-07 06:42 | 51.66287 | 15.30935 | 34622 ft | 408 kts | 253° |
| 2026-05-07 06:43 | 51.65678 | 15.26506 | 34200 ft | 402 kts | 252° |
| 2026-05-07 06:43 | 51.65081 | 15.22158 | 33827 ft | 394 kts | 252° |
| 2026-05-07 06:43 | 51.64491 | 15.17880 | 33417 ft | 390 kts | 252° |
| 2026-05-07 06:43 | 51.63904 | 15.13654 | 33008 ft | 395 kts | 252° |
| 2026-05-07 06:44 | 51.63289 | 15.09257 | 32585 ft | 401 kts | 252° |
| 2026-05-07 06:44 | 51.62680 | 15.04912 | 32178 ft | 405 kts | 252° |
| 2026-05-07 06:44 | 51.62054 | 15.00430 | 31766 ft | 405 kts | 252° |
| 2026-05-07 06:44 | 51.61445 | 14.96068 | 31392 ft | 405 kts | 252° |
| 2026-05-07 06:45 | 51.60818 | 14.91598 | 31033 ft | 404 kts | 252° |
| 2026-05-07 06:45 | 51.60206 | 14.87251 | 30711 ft | 404 kts | 252° |
| 2026-05-07 06:45 | 51.59585 | 14.82855 | 30422 ft | 404 kts | 252° |
| 2026-05-07 06:45 | 51.58954 | 14.78408 | 30130 ft | 410 kts | 252° |
| 2026-05-07 06:46 | 51.58314 | 14.73917 | 29946 ft | 413 kts | 252° |
| 2026-05-07 06:46 | 51.57670 | 14.69402 | 29916 ft | 416 kts | 252° |
| 2026-05-07 06:46 | 51.56381 | 14.60378 | 29900 ft | 413 kts | 252° |
| 2026-05-07 06:47 | 51.55086 | 14.51369 | 29916 ft | 415 kts | 252° |
| 2026-05-07 06:47 | 51.53777 | 14.42311 | 29903 ft | 417 kts | 252° |
| 2026-05-07 06:48 | 51.52460 | 14.33239 | 29919 ft | 418 kts | 252° |
| 2026-05-07 06:48 | 51.51132 | 14.24155 | 29620 ft | 418 kts | 252° |
| 2026-05-07 06:49 | 51.50469 | 14.19610 | 29348 ft | 418 kts | 252° |
| 2026-05-07 06:49 | 51.49806 | 14.15059 | 29067 ft | 420 kts | 252° |
| 2026-05-07 06:49 | 51.49137 | 14.10475 | 28789 ft | 423 kts | 252° |
| 2026-05-07 06:49 | 51.48465 | 14.05877 | 28554 ft | 423 kts | 253° |
| 2026-05-07 06:50 | 51.47793 | 14.01287 | 28362 ft | 423 kts | 253° |
| 2026-05-07 06:50 | 51.47119 | 13.96695 | 28191 ft | 423 kts | 253° |
| 2026-05-07 06:50 | 51.46441 | 13.92103 | 28036 ft | 424 kts | 253° |
| 2026-05-07 06:50 | 51.45830 | 13.87441 | 27935 ft | 431 kts | 258° |
| 2026-05-07 06:51 | 51.45620 | 13.82622 | 27912 ft | 435 kts | 266° |
| 2026-05-07 06:51 | 51.45654 | 13.77806 | 27909 ft | 429 kts | 267° |
| 2026-05-07 06:51 | 51.45709 | 13.73047 | 27902 ft | 425 kts | 267° |
| 2026-05-07 06:51 | 51.45761 | 13.68349 | 27894 ft | 418 kts | 267° |
| 2026-05-07 06:52 | 51.45799 | 13.63776 | 27906 ft | 415 kts | 267° |
| 2026-05-07 06:52 | 51.45826 | 13.59088 | 27923 ft | 417 kts | 267° |
| 2026-05-07 06:52 | 51.45843 | 13.54489 | 27889 ft | 419 kts | 267° |
| 2026-05-07 06:52 | 51.45857 | 13.49800 | 27464 ft | 418 kts | 267° |
| 2026-05-07 06:53 | 51.45868 | 13.45166 | 26970 ft | 413 kts | 268° |
| 2026-05-07 06:53 | 51.45878 | 13.40595 | 26482 ft | 409 kts | 268° |
| 2026-05-07 06:53 | 51.45886 | 13.36056 | 25973 ft | 405 kts | 268° |
| 2026-05-07 06:53 | 51.45892 | 13.31549 | 25474 ft | 403 kts | 268° |
| 2026-05-07 06:54 | 51.45896 | 13.27078 | 24986 ft | 400 kts | 268° |
| 2026-05-07 06:54 | 51.45900 | 13.22624 | 24491 ft | 398 kts | 268° |
| 2026-05-07 06:54 | 51.45901 | 13.18196 | 23995 ft | 397 kts | 269° |
| 2026-05-07 06:54 | 51.45902 | 13.13776 | 23474 ft | 396 kts | 269° |
| 2026-05-07 06:55 | 51.46183 | 13.09390 | 22882 ft | 396 kts | 281° |
| 2026-05-07 06:55 | 51.46971 | 13.05164 | 22355 ft | 394 kts | 290° |
| 2026-05-07 06:55 | 51.48210 | 13.01254 | 21811 ft | 393 kts | 300° |
| 2026-05-07 06:55 | 51.49666 | 12.97556 | 21330 ft | 391 kts | 301° |
| 2026-05-07 06:56 | 51.51125 | 12.93896 | 20850 ft | 387 kts | 301° |
| 2026-05-07 06:56 | 51.52549 | 12.90243 | 20351 ft | 385 kts | 300° |
| 2026-05-07 06:56 | 51.53947 | 12.86598 | 19881 ft | 382 kts | 300° |
| 2026-05-07 06:56 | 51.55364 | 12.82995 | 19411 ft | 380 kts | 301° |
| 2026-05-07 06:57 | 51.56203 | 12.80541 | 19093 ft | 377 kts | 292° |
| 2026-05-07 06:57 | 51.56972 | 12.76547 | 18636 ft | 373 kts | 279° |
| 2026-05-07 06:57 | 51.57166 | 12.72420 | 18158 ft | 369 kts | 266° |
| 2026-05-07 06:57 | 51.56915 | 12.66990 | 17490 ft | 366 kts | 264° |
| 2026-05-07 06:58 | 51.56698 | 12.62930 | 16983 ft | 364 kts | 264° |
| 2026-05-07 06:58 | 51.56564 | 12.60194 | 16676 ft | 362 kts | 265° |
| 2026-05-07 06:58 | 51.56379 | 12.56171 | 16203 ft | 360 kts | 265° |
| 2026-05-07 06:58 | 51.56202 | 12.52165 | 15741 ft | 359 kts | 265° |
| 2026-05-07 06:59 | 51.56027 | 12.48174 | 15289 ft | 357 kts | 265° |
| 2026-05-07 06:59 | 51.55852 | 12.44248 | 14834 ft | 356 kts | 265° |
| 2026-05-07 06:59 | 51.55675 | 12.40289 | 14380 ft | 355 kts | 265° |
| 2026-05-07 06:59 | 51.55496 | 12.36345 | 13930 ft | 353 kts | 266° |
| 2026-05-07 07:00 | 51.55317 | 12.32417 | 13453 ft | 352 kts | 266° |
| 2026-05-07 07:00 | 51.55138 | 12.28509 | 12960 ft | 350 kts | 266° |
| 2026-05-07 07:00 | 51.54957 | 12.24626 | 12504 ft | 347 kts | 266° |
| 2026-05-07 07:00 | 51.54777 | 12.20772 | 12048 ft | 345 kts | 266° |
| 2026-05-07 07:01 | 51.54597 | 12.16946 | 11587 ft | 342 kts | 266° |
| 2026-05-07 07:01 | 51.54417 | 12.13150 | 11151 ft | 339 kts | 266° |
| 2026-05-07 07:01 | 51.54238 | 12.09380 | 10724 ft | 337 kts | 267° |
| 2026-05-07 07:01 | 51.54061 | 12.05671 | 10490 ft | 328 kts | 267° |
| 2026-05-07 07:02 | 51.53887 | 12.02070 | 10343 ft | 318 kts | 266° |
| 2026-05-07 07:02 | 51.53716 | 11.98579 | 10197 ft | 309 kts | 267° |
| 2026-05-07 07:02 | 51.53551 | 11.95206 | 10060 ft | 296 kts | 267° |
| 2026-05-07 07:02 | 51.53393 | 11.92004 | 9920 ft | 280 kts | 267° |
| 2026-05-07 07:03 | 51.53242 | 11.88937 | 9616 ft | 272 kts | 267° |
| 2026-05-07 07:03 | 51.53096 | 11.85958 | 9361 ft | 265 kts | 267° |
| 2026-05-07 07:03 | 51.52948 | 11.83004 | 9078 ft | 265 kts | 266° |
| 2026-05-07 07:03 | 51.52800 | 11.80064 | 8792 ft | 265 kts | 266° |
| 2026-05-07 07:04 | 51.52652 | 11.77119 | 8504 ft | 264 kts | 266° |
| 2026-05-07 07:04 | 51.52505 | 11.74220 | 8233 ft | 263 kts | 266° |
| 2026-05-07 07:04 | 51.52356 | 11.71288 | 7952 ft | 264 kts | 266° |
| 2026-05-07 07:04 | 51.52205 | 11.68349 | 7660 ft | 265 kts | 266° |
| 2026-05-07 07:05 | 51.52024 | 11.65399 | 7380 ft | 266 kts | 258° |
| 2026-05-07 07:05 | 51.51223 | 11.62754 | 7118 ft | 265 kts | 229° |
| 2026-05-07 07:05 | 51.49736 | 11.61047 | 6839 ft | 266 kts | 201° |
| 2026-05-07 07:05 | 51.47923 | 11.60638 | 6569 ft | 265 kts | 174° |
| 2026-05-07 07:06 | 51.46167 | 11.61488 | 6293 ft | 265 kts | 153° |
| 2026-05-07 07:06 | 51.44536 | 11.62872 | 5999 ft | 265 kts | 151° |
| 2026-05-07 07:06 | 51.42916 | 11.64275 | 5708 ft | 265 kts | 151° |
| 2026-05-07 07:06 | 51.41291 | 11.65667 | 5424 ft | 265 kts | 152° |
| 2026-05-07 07:07 | 51.39785 | 11.67285 | 5268 ft | 259 kts | 132° |
| 2026-05-07 07:07 | 51.38918 | 11.69732 | 5176 ft | 251 kts | 105° |
| 2026-05-07 07:07 | 51.38739 | 11.72466 | 5075 ft | 245 kts | 87° |
| 2026-05-07 07:07 | 51.38866 | 11.75153 | 4972 ft | 239 kts | 84° |
| 2026-05-07 07:08 | 51.39031 | 11.77775 | 4866 ft | 233 kts | 84° |
| 2026-05-07 07:08 | 51.39181 | 11.80316 | 4758 ft | 224 kts | 84° |
| 2026-05-07 07:08 | 51.39315 | 11.82767 | 4551 ft | 218 kts | 85° |
| 2026-05-07 07:08 | 51.39439 | 11.85130 | 4359 ft | 208 kts | 84° |
| 2026-05-07 07:09 | 51.39599 | 11.87381 | 4122 ft | 200 kts | 82° |
| 2026-05-07 07:09 | 51.39751 | 11.89543 | 3914 ft | 191 kts | 84° |
| 2026-05-07 07:09 | 51.39860 | 11.91605 | 3721 ft | 182 kts | 85° |
| 2026-05-07 07:09 | 51.39952 | 11.93584 | 3520 ft | 175 kts | 85° |
| 2026-05-07 07:10 | 51.40037 | 11.95491 | 3327 ft | 170 kts | 85° |
| 2026-05-07 07:10 | 51.40119 | 11.97358 | 3155 ft | 166 kts | 85° |
| 2026-05-07 07:10 | 51.40201 | 11.99223 | 3084 ft | 169 kts | 85° |
| 2026-05-07 07:10 | 51.40285 | 12.01124 | 2878 ft | 171 kts | 84° |
| 2026-05-07 07:11 | 51.40367 | 12.02991 | 2653 ft | 166 kts | 84° |
| 2026-05-07 07:11 | 51.40447 | 12.04759 | 2433 ft | 155 kts | 84° |
| 2026-05-07 07:11 | 51.40521 | 12.06415 | 2234 ft | 140 kts | 83° |
| 2026-05-07 07:11 | 51.40589 | 12.07942 | 2054 ft | 135 kts | 82° |
| 2026-05-07 07:12 | 51.40657 | 12.09433 | 1872 ft | 135 kts | 82° |
| 2026-05-07 07:12 | 51.40726 | 12.10944 | 1684 ft | 137 kts | 82° |
| 2026-05-07 07:12 | 51.40794 | 12.12452 | 1485 ft | 135 kts | 83° |
| 2026-05-07 07:12 | 51.40862 | 12.13947 | 1299 ft | 135 kts | 83° |
| 2026-05-07 07:13 | 51.40931 | 12.15455 | 1104 ft | 139 kts | 82° |
| 2026-05-07 07:13 | 51.41001 | 12.16992 | 900 ft | 137 kts | 82° |
| 2026-05-07 07:13 | 51.41072 | 12.18525 | 720 ft | 136 kts | 83° |
| 2026-05-07 07:13 | 51.41139 | 12.20005 | 526 ft | 134 kts | 82° |
| 2026-05-07 07:14 | 51.41210 | 12.21444 | 451 ft | 116 kts | 85° |
| 2026-05-07 07:14 | 51.41254 | 12.22422 | 456 ft | 58 kts | 85° |
| 2026-05-07 07:14 | 51.41273 | 12.22823 | 461 ft | 29 kts | 85° |
| 2026-05-07 07:14 | 51.41289 | 12.23093 | 463 ft | 17 kts | 85° |
| 2026-05-07 07:15 | 51.41312 | 12.23241 | 463 ft | 10 kts | 36° |
| 2026-05-07 07:15 | 51.41361 | 12.23252 | 463 ft | 7 kts | 356° |
| 2026-05-07 07:15 | 51.41406 | 12.23248 | 461 ft | 6 kts | 356° |
| 2026-05-07 07:15 | 51.41450 | 12.23242 | 457 ft | 6 kts | 355° |
| 2026-05-07 07:16 | 51.41493 | 12.23236 | 460 ft | 6 kts | 355° |
| 2026-05-07 07:16 | 51.41535 | 12.23230 | 461 ft | 6 kts | 355° |
| 2026-05-07 07:16 | 51.41576 | 12.23224 | 461 ft | 6 kts | 349° |
| 2026-05-07 07:16 | 51.41606 | 12.23183 | 464 ft | 6 kts | 298° |
| 2026-05-07 07:17 | 51.41618 | 12.23122 | 464 ft | 6 kts | 285° |
| 2026-05-07 07:17 | 51.41629 | 12.23059 | 463 ft | 6 kts | 285° |
| 2026-05-07 07:17 | 51.41642 | 12.22986 | 463 ft | 7 kts | 285° |
| 2026-05-07 07:17 | 51.41655 | 12.22905 | 463 ft | 8 kts | 285° |
| 2026-05-07 07:18 | 51.41670 | 12.22823 | 462 ft | 8 kts | 285° |
| 2026-05-07 07:18 | 51.41683 | 12.22747 | 460 ft | 7 kts | 285° |
| 2026-05-07 07:18 | 51.41699 | 12.22653 | 460 ft | 10 kts | 285° |
| 2026-05-07 07:18 | 51.41718 | 12.22537 | 458 ft | 12 kts | 285° |
| 2026-05-07 07:19 | 51.41739 | 12.22422 | 454 ft | 12 kts | 285° |
| 2026-05-07 07:19 | 51.41764 | 12.22277 | 451 ft | 15 kts | 284° |
| 2026-05-07 07:19 | 51.41791 | 12.22117 | 447 ft | 13 kts | 285° |
| 2026-05-07 07:19 | 51.41817 | 12.21963 | 441 ft | 15 kts | 285° |
| 2026-05-07 07:20 | 51.41837 | 12.21865 | 435 ft | 7 kts | 306° |
| 2026-05-07 07:20 | 51.41868 | 12.21855 | 431 ft | 4 kts | 7° |
| 2026-05-07 07:20 | 51.41903 | 12.21868 | 435 ft | 6 kts | 15° |
| 2026-05-07 07:20 | 51.41927 | 12.21879 | 439 ft | 2 kts | 15° |
| 2026-05-07 07:21 | 51.41928 | 12.21879 | 439 ft | 0 kts | 15° |